Weather at Yeovil/Westland Aerodrome

Public forecast

Using degrees Celsius for public forecast. Weather courtesy of forecast.io.

Closest aviation weather report (METAR) to Yeovil/Westland Aerodrome

Closest report is RNAS Yeovilton, 4.2 nm (7.8 km) N. Retrieved 2020/09/18 22:50 UTC (34 minutes ago):

EGDY 182250Z AUTO 04006KT 9999 OVC220/// 14/09 Q1019

Closest aviation forecast (TAF) to Yeovil/Westland Aerodrome

Forecast is more than 12 hours old.

Closest forecast is RNAS Yeovilton, 4.2 nm (7.8 km) N. Retrieved 2020/07/01 18:15 UTC (3 months ago):

TAF TAF EGDY 010110Z 3018/0103 CNL